DW9271 Weather Reports


Display with metric or nautical units.
time (UTC)temp
F
wind
direction
speed
MPH
gust
MPH
rain 1hr
in
rain 24hr
in
rain mn
in
humidity
%
barometer
mb
20240717233011 69 301 3.0 9.0 0.00 0.00 0.00 60 1016.4
20240717231527 69 316 2.0 7.0 0.00 0.00 0.00 58 1016.3
20240717230008 69 295 5.0 12.0 0.00 0.00 0.00 56 1016.2
20240717224506 70 279 3.0 9.0 0.00 0.00 0.00 58 1016.0
20240717223005 71 309 4.0 13.0 0.00 0.00 0.00 55 1015.7
20240717221505 71 342 5.0 13.0 0.00 0.00 0.00 53 1015.7
20240717220003 71 258 5.0 12.0 0.00 0.00 0.00 55 1015.6
20240717214505 71 31 2.0 10.0 0.00 0.00 0.00 59 1015.6
20240717213004 70 261 4.0 11.0 0.00 0.00 0.00 58 1015.5
20240717211502 70 297 4.0 10.0 0.00 0.00 0.00 56 1015.4
20240717210102 70 255 4.0 10.0 0.00 0.00 0.00 57 1015.6
20240717204600 70 272 4.0 14.0 0.00 0.00 0.00 56 1015.6
20240717203059 70 240 4.0 11.0 0.00 0.00 0.00 56 1015.4
20240717201558 70 283 2.0 9.0 0.00 0.00 0.00 57 1015.3
20240717200133 71 249 6.0 15.0 0.00 0.00 0.00 56 1015.3
20240717194558 69 284 3.0 11.0 0.00 0.00 0.00 58 1015.3
20240717193055 72 288 6.0 15.0 0.00 0.00 0.00 56 1015.1
20240717191553 71 317 6.0 14.0 0.00 0.00 0.00 54 1014.9
20240717190051 72 261 4.0 10.0 0.00 0.00 0.00 56 1014.6
20240717184548 70 317 4.0 13.0 0.00 0.00 0.00 53 1014.5
20240717183050 70 278 6.0 13.0 0.00 0.00 0.00 53 1014.4
20240717181545 70 342 5.0 14.0 0.00 0.00 0.00 59 1014.3
20240717180043 70 269 6.0 12.0 0.00 0.00 0.00 60 1014.1
20240717174544 70 303 5.0 12.0 0.00 0.00 0.00 59 1014.0
20240717173040 71 275 6.0 10.0 0.00 0.00 0.00 57 1013.9
20240717171539 69 290 4.0 11.0 0.00 0.00 0.00 62 1014.0
20240717170044 70 281 4.0 10.0 0.00 0.00 0.00 60 1013.7
20240717164536 71 285 6.0 13.0 0.00 0.00 0.00 59 1013.6
20240717163034 70 283 7.0 15.0 0.00 0.00 0.00 61 1013.5
20240717161535 71 274 6.0 11.0 0.00 0.00 0.00 62 1013.4
20240717160030 69 230 6.0 11.0 0.00 0.00 0.00 63 1013.4
20240717154528 68 246 6.0 12.0 0.00 0.00 0.00 63 1013.5
20240717153147 69 252 6.0 11.0 0.00 0.00 0.00 67 1013.4
20240717151525 68 284 4.0 10.0 0.00 0.00 0.00 69 1013.2
20240717150022 68 243 4.0 8.0 0.00 0.00 0.00 68 1013.1
20240717144522 68 288 4.0 9.0 0.00 0.00 0.00 68 1013.1
20240717143019 67 303 2.0 10.0 0.00 0.00 0.00 68 1013.1
20240717141531 66 274 3.0 10.0 0.00 0.00 0.00 70 1013.1
20240717140012 66 25 2.0 9.0 0.00 0.00 0.00 71 1012.9
20240717134509 65 284 2.0 7.0 0.00 0.00 0.00 75 1012.9
20240717133008 64 295 2.0 7.0 0.00 0.00 0.00 76 1012.9
20240717131504 64 258 2.0 8.0 0.00 0.00 0.00 78 1013.0
20240717130003 63 288 1.0 7.0 0.00 0.00 0.00 79 1012.9
20240717124501 63 270 0.0 5.0 0.00 0.00 0.00 82 1012.8
20240717123035 62 283 1.0 7.0 0.00 0.00 0.00 83 1012.7
20240717121533 62 292 1.0 4.0 0.00 0.00 0.00 84 1012.5
20240717120032 61 285 1.0 2.0 0.00 0.00 0.00 86 1012.4
20240717114531 60 261 0.0 1.0 0.00 0.00 0.00 88 1012.2
20240717113036 60 261 0.0 0.0 0.00 0.00 0.00 89 1012.1
20240717111541 60 261 0.0 0.0 0.00 0.00 0.00 88 1011.8
20240717110021 60 261 0.0 2.0 0.00 0.00 0.00 89 1011.7
20240717104518 60 261 0.0 3.0 0.00 0.00 0.00 91 1011.5
20240717103023 60 271 0.0 1.0 0.00 0.00 0.00 93 1011.3
20240717101523 60 270 0.0 0.0 0.00 0.00 0.00 95 1011.1
20240717100012 60 270 0.0 0.0 0.00 0.00 0.00 95 1011.0
20240717094552 60 270 0.0 0.0 0.00 0.00 0.00 95 1010.7
20240717093019 59 270 0.0 0.0 0.00 0.00 0.00 95 1010.4
20240717091521 60 270 0.0 0.0 0.00 0.00 0.00 94 1010.4
20240717090008 60 270 0.0 0.0 0.00 0.00 0.00 94 1010.3
20240717084615 60 270 0.0 0.0 0.00 0.00 0.00 94 1010.1
20240717083135 60 270 0.0 0.0 0.00 0.00 0.00 94 1010.0
20240717081535 60 270 0.0 0.0 0.00 0.00 0.00 94 1009.8
20240717080036 60 270 0.0 0.0 0.00 0.00 0.00 94 1009.9
20240717074533 60 270 0.0 0.0 0.00 0.00 0.00 94 1009.9
20240717073034 60 270 0.0 0.0 0.00 0.00 0.00 93 1009.9
20240717071526 61 270 0.0 0.0 0.00 0.00 0.00 93 1009.7
20240717070025 61 270 0.0 0.0 0.00 0.00 0.00 93 1009.7
20240717064524 62 270 0.0 0.0 0.00 0.00 0.00 93 1009.7
20240717063022 61 270 0.0 0.0 0.00 0.00 0.00 92 1009.8
20240717061522 61 270 0.0 0.0 0.00 0.00 0.00 92 1010.0
20240717060021 62 270 0.0 0.0 0.00 0.00 0.00 91 1010.0
20240717054520 62 270 0.0 0.0 0.00 0.00 0.00 91 1010.0
20240717053015 62 270 0.0 0.0 0.00 0.00 0.00 91 1009.8
20240717051512 63 270 0.0 0.0 0.00 0.00 0.00 90 1009.7
20240717050008 63 270 0.0 0.0 0.00 0.00 0.00 90 1009.6
20240717044546 63 270 0.0 1.0 0.00 0.00 0.00 89 1009.4
20240717043026 64 270 0.0 0.0 0.00 0.00 0.00 88 1009.2
20240717034702 66 270 0.0 0.0 0.00 0.00 0.00 87 1009.1
20240717030047 67 270 0.0 0.0 0.00 0.00 0.00 79 1008.7
20240717021523 70 270 0.0 0.0 0.00 0.00 0.00 74 1008.5
20240717010019 74 302 0.0 3.0 0.00 0.00 0.00 65 1007.8
20240717004522 75 273 2.0 8.0 0.00 0.00 0.00 64 1007.7
20240717003018 75 278 2.0 8.0 0.00 0.00 0.00 62 1007.7
20240717001520 77 236 5.0 10.0 0.00 0.00 0.00 56 1007.5
20240717000018 79 249 1.0 8.0 0.00 0.00 0.00 53 1007.4
20240716234524 79 256 3.0 8.0 0.00 0.00 0.00 51 1007.2